sensor_id;sensor_type;location;lat;lon;timestamp;P1;durP1;ratioP1;P2;durP2;ratioP2
50301;SDS011;36550;50.472;19.744;2022-09-01T00:00:29;4.20;;;2.08;;
50301;SDS011;36550;50.472;19.744;2022-09-01T00:03:16;3.40;;;1.90;;
50301;SDS011;36550;50.472;19.744;2022-09-01T00:06:02;4.95;;;2.00;;
50301;SDS011;36550;50.472;19.744;2022-09-01T00:08:46;3.52;;;1.80;;
50301;SDS011;36550;50.472;19.744;2022-09-01T00:11:31;5.05;;;1.60;;
50301;SDS011;36550;50.472;19.744;2022-09-01T00:14:17;3.45;;;1.60;;
50301;SDS011;36550;50.472;19.744;2022-09-01T00:17:08;5.28;;;1.55;;
50301;SDS011;36550;50.472;19.744;2022-09-01T00:19:54;5.37;;;1.60;;
50301;SDS011;36550;50.472;19.744;2022-09-01T00:22:38;3.95;;;1.77;;
50301;SDS011;36550;50.472;19.744;2022-09-01T00:25:22;2.85;;;1.75;;
50301;SDS011;36550;50.472;19.744;2022-09-01T00:28:07;4.03;;;1.80;;
50301;SDS011;36550;50.472;19.744;2022-09-01T00:30:51;4.75;;;1.80;;
50301;SDS011;36550;50.472;19.744;2022-09-01T00:33:36;3.55;;;1.40;;
50301;SDS011;36550;50.472;19.744;2022-09-01T00:36:21;4.05;;;1.55;;
50301;SDS011;36550;50.472;19.744;2022-09-01T00:39:06;3.62;;;1.52;;
50301;SDS011;36550;50.472;19.744;2022-09-01T00:41:51;1.85;;;1.45;;
50301;SDS011;36550;50.472;19.744;2022-09-01T00:44:35;4.28;;;1.90;;
50301;SDS011;36550;50.472;19.744;2022-09-01T00:47:20;5.65;;;1.77;;
50301;SDS011;36550;50.472;19.744;2022-09-01T00:50:06;3.40;;;1.95;;
50301;SDS011;36550;50.472;19.744;2022-09-01T00:52:52;4.90;;;2.05;;
50301;SDS011;36550;50.472;19.744;2022-09-01T00:55:38;5.15;;;1.82;;
50301;SDS011;36550;50.472;19.744;2022-09-01T00:58:22;7.33;;;1.95;;
50301;SDS011;36550;50.472;19.744;2022-09-01T01:01:07;5.47;;;1.40;;
50301;SDS011;36550;50.472;19.744;2022-09-01T01:03:53;6.90;;;1.62;;
50301;SDS011;36550;50.472;19.744;2022-09-01T01:06:38;3.75;;;1.47;;
50301;SDS011;36550;50.472;19.744;2022-09-01T01:09:24;2.90;;;1.75;;
50301;SDS011;36550;50.472;19.744;2022-09-01T01:12:11;5.25;;;1.90;;
50301;SDS011;36550;50.472;19.744;2022-09-01T01:14:58;6.45;;;2.08;;
50301;SDS011;36550;50.472;19.744;2022-09-01T01:17:42;3.20;;;2.05;;
50301;SDS011;36550;50.472;19.744;2022-09-01T01:20:27;4.42;;;1.65;;
50301;SDS011;36550;50.472;19.744;2022-09-01T01:23:38;3.10;;;1.60;;
50301;SDS011;36550;50.472;19.744;2022-09-01T01:26:43;3.22;;;1.40;;
50301;SDS011;36550;50.472;19.744;2022-09-01T01:29:33;2.75;;;1.50;;
50301;SDS011;36550;50.472;19.744;2022-09-01T01:32:17;3.58;;;1.87;;
50301;SDS011;36550;50.472;19.744;2022-09-01T01:35:02;4.08;;;1.80;;
50301;SDS011;36550;50.472;19.744;2022-09-01T01:37:49;4.50;;;1.87;;
50301;SDS011;36550;50.472;19.744;2022-09-01T01:40:33;4.95;;;1.95;;
50301;SDS011;36550;50.472;19.744;2022-09-01T01:43:21;3.98;;;2.02;;
50301;SDS011;36550;50.472;19.744;2022-09-01T01:46:07;3.42;;;1.80;;
50301;SDS011;36550;50.472;19.744;2022-09-01T01:48:52;2.92;;;1.35;;
50301;SDS011;36550;50.472;19.744;2022-09-01T01:51:38;2.53;;;1.50;;
50301;SDS011;36550;50.472;19.744;2022-09-01T01:54:23;2.83;;;1.50;;
50301;SDS011;36550;50.472;19.744;2022-09-01T01:57:10;3.55;;;1.70;;
50301;SDS011;36550;50.472;19.744;2022-09-01T01:59:57;3.15;;;1.35;;
50301;SDS011;36550;50.472;19.744;2022-09-01T02:02:41;3.70;;;1.60;;
50301;SDS011;36550;50.472;19.744;2022-09-01T02:05:28;4.45;;;1.62;;
50301;SDS011;36550;50.472;19.744;2022-09-01T02:08:15;3.05;;;1.70;;
50301;SDS011;36550;50.472;19.744;2022-09-01T02:11:03;3.10;;;1.80;;
50301;SDS011;36550;50.472;19.744;2022-09-01T02:13:49;5.10;;;1.70;;
50301;SDS011;36550;50.472;19.744;2022-09-01T02:19:20;3.75;;;1.65;;
50301;SDS011;36550;50.472;19.744;2022-09-01T02:22:04;4.90;;;1.62;;
50301;SDS011;36550;50.472;19.744;2022-09-01T02:24:48;4.60;;;2.37;;
50301;SDS011;36550;50.472;19.744;2022-09-01T02:30:20;5.30;;;2.83;;
50301;SDS011;36550;50.472;19.744;2022-09-01T02:33:06;7.70;;;3.30;;
50301;SDS011;36550;50.472;19.744;2022-09-01T02:35:53;7.55;;;2.83;;
50301;SDS011;36550;50.472;19.744;2022-09-01T02:38:41;5.72;;;2.15;;
50301;SDS011;36550;50.472;19.744;2022-09-01T02:44:11;5.00;;;1.98;;
50301;SDS011;36550;50.472;19.744;2022-09-01T02:46:57;3.70;;;2.20;;
50301;SDS011;36550;50.472;19.744;2022-09-01T02:49:44;3.85;;;2.17;;
50301;SDS011;36550;50.472;19.744;2022-09-01T02:52:28;5.47;;;2.20;;
50301;SDS011;36550;50.472;19.744;2022-09-01T02:55:14;6.00;;;3.10;;
50301;SDS011;36550;50.472;19.744;2022-09-01T02:58:04;4.05;;;2.60;;
50301;SDS011;36550;50.472;19.744;2022-09-01T03:00:52;5.85;;;2.10;;
50301;SDS011;36550;50.472;19.744;2022-09-01T03:03:38;4.15;;;2.15;;
50301;SDS011;36550;50.472;19.744;2022-09-01T03:06:23;4.50;;;2.58;;
50301;SDS011;36550;50.472;19.744;2022-09-01T03:09:09;6.00;;;3.52;;
50301;SDS011;36550;50.472;19.744;2022-09-01T03:11:57;5.70;;;2.98;;
50301;SDS011;36550;50.472;19.744;2022-09-01T03:14:41;7.33;;;3.15;;
50301;SDS011;36550;50.472;19.744;2022-09-01T03:17:25;3.95;;;2.60;;
50301;SDS011;36550;50.472;19.744;2022-09-01T03:20:10;4.22;;;2.50;;
50301;SDS011;36550;50.472;19.744;2022-09-01T03:22:54;7.30;;;2.55;;
50301;SDS011;36550;50.472;19.744;2022-09-01T03:25:40;6.00;;;2.35;;
50301;SDS011;36550;50.472;19.744;2022-09-01T03:28:26;3.42;;;2.33;;
50301;SDS011;36550;50.472;19.744;2022-09-01T03:31:11;3.95;;;2.50;;
50301;SDS011;36550;50.472;19.744;2022-09-01T03:33:56;5.92;;;2.25;;
50301;SDS011;36550;50.472;19.744;2022-09-01T03:36:41;4.25;;;2.27;;
50301;SDS011;36550;50.472;19.744;2022-09-01T03:39:27;6.03;;;1.90;;
50301;SDS011;36550;50.472;19.744;2022-09-01T03:42:12;6.05;;;2.20;;
50301;SDS011;36550;50.472;19.744;2022-09-01T03:44:58;3.83;;;1.82;;
50301;SDS011;36550;50.472;19.744;2022-09-01T03:47:42;3.62;;;2.20;;
50301;SDS011;36550;50.472;19.744;2022-09-01T03:50:27;8.33;;;2.10;;
50301;SDS011;36550;50.472;19.744;2022-09-01T03:53:12;6.22;;;2.40;;
50301;SDS011;36550;50.472;19.744;2022-09-01T03:56:02;3.15;;;2.00;;
50301;SDS011;36550;50.472;19.744;2022-09-01T03:58:48;5.58;;;2.45;;
50301;SDS011;36550;50.472;19.744;2022-09-01T04:01:32;5.37;;;2.08;;
50301;SDS011;36550;50.472;19.744;2022-09-01T04:04:19;3.70;;;2.02;;
50301;SDS011;36550;50.472;19.744;2022-09-01T04:07:03;4.03;;;2.50;;
50301;SDS011;36550;50.472;19.744;2022-09-01T04:09:47;3.80;;;1.87;;
50301;SDS011;36550;50.472;19.744;2022-09-01T04:12:31;7.45;;;2.00;;
50301;SDS011;36550;50.472;19.744;2022-09-01T04:15:17;4.83;;;2.30;;
50301;SDS011;36550;50.472;19.744;2022-09-01T04:18:02;3.40;;;2.22;;
50301;SDS011;36550;50.472;19.744;2022-09-01T04:20:54;7.42;;;2.37;;
50301;SDS011;36550;50.472;19.744;2022-09-01T04:23:42;3.37;;;2.08;;
50301;SDS011;36550;50.472;19.744;2022-09-01T04:26:28;4.00;;;2.17;;
50301;SDS011;36550;50.472;19.744;2022-09-01T04:29:14;6.53;;;1.92;;
50301;SDS011;36550;50.472;19.744;2022-09-01T04:32:03;3.50;;;2.00;;
50301;SDS011;36550;50.472;19.744;2022-09-01T04:34:50;4.70;;;2.10;;
50301;SDS011;36550;50.472;19.744;2022-09-01T04:37:34;4.45;;;2.33;;
50301;SDS011;36550;50.472;19.744;2022-09-01T04:40:19;5.25;;;3.00;;
50301;SDS011;36550;50.472;19.744;2022-09-01T04:45:49;4.70;;;2.40;;
50301;SDS011;36550;50.472;19.744;2022-09-01T04:48:36;4.08;;;2.30;;
50301;SDS011;36550;50.472;19.744;2022-09-01T04:51:21;5.65;;;2.20;;
50301;SDS011;36550;50.472;19.744;2022-09-01T04:54:08;3.35;;;1.90;;
50301;SDS011;36550;50.472;19.744;2022-09-01T04:56:55;5.50;;;2.25;;
50301;SDS011;36550;50.472;19.744;2022-09-01T04:59:39;5.08;;;2.50;;
50301;SDS011;36550;50.472;19.744;2022-09-01T05:02:24;5.87;;;2.47;;
50301;SDS011;36550;50.472;19.744;2022-09-01T05:05:11;7.60;;;2.95;;
50301;SDS011;36550;50.472;19.744;2022-09-01T05:07:55;7.25;;;2.70;;
50301;SDS011;36550;50.472;19.744;2022-09-01T05:10:41;5.65;;;2.30;;
50301;SDS011;36550;50.472;19.744;2022-09-01T05:16:19;4.50;;;2.40;;
50301;SDS011;36550;50.472;19.744;2022-09-01T05:19:04;6.03;;;1.98;;
50301;SDS011;36550;50.472;19.744;2022-09-01T05:21:49;6.35;;;1.90;;
50301;SDS011;36550;50.472;19.744;2022-09-01T05:24:33;3.00;;;1.80;;
50301;SDS011;36550;50.472;19.744;2022-09-01T05:27:18;4.87;;;2.20;;
50301;SDS011;36550;50.472;19.744;2022-09-01T05:30:03;3.50;;;2.27;;
50301;SDS011;36550;50.472;19.744;2022-09-01T05:32:50;3.90;;;2.17;;
50301;SDS011;36550;50.472;19.744;2022-09-01T05:35:39;3.95;;;2.08;;
50301;SDS011;36550;50.472;19.744;2022-09-01T05:38:26;4.70;;;1.70;;
50301;SDS011;36550;50.472;19.744;2022-09-01T05:41:13;5.40;;;2.02;;
50301;SDS011;36550;50.472;19.744;2022-09-01T05:44:00;3.58;;;1.90;;
50301;SDS011;36550;50.472;19.744;2022-09-01T05:46:49;4.33;;;1.90;;
50301;SDS011;36550;50.472;19.744;2022-09-01T05:49:33;5.70;;;2.00;;
50301;SDS011;36550;50.472;19.744;2022-09-01T05:52:18;2.83;;;1.80;;
50301;SDS011;36550;50.472;19.744;2022-09-01T05:57:51;3.65;;;2.10;;
50301;SDS011;36550;50.472;19.744;2022-09-01T06:00:36;8.15;;;2.58;;
50301;SDS011;36550;50.472;19.744;2022-09-01T06:03:21;4.60;;;1.80;;
50301;SDS011;36550;50.472;19.744;2022-09-01T06:06:07;4.65;;;1.75;;
50301;SDS011;36550;50.472;19.744;2022-09-01T06:11:41;6.55;;;1.60;;
50301;SDS011;36550;50.472;19.744;2022-09-01T06:14:26;5.55;;;2.00;;
50301;SDS011;36550;50.472;19.744;2022-09-01T06:17:10;5.45;;;1.80;;
50301;SDS011;36550;50.472;19.744;2022-09-01T06:19:56;2.60;;;1.70;;
50301;SDS011;36550;50.472;19.744;2022-09-01T06:22:41;3.65;;;1.60;;
50301;SDS011;36550;50.472;19.744;2022-09-01T06:25:26;3.62;;;1.70;;
50301;SDS011;36550;50.472;19.744;2022-09-01T06:28:12;5.95;;;1.70;;
50301;SDS011;36550;50.472;19.744;2022-09-01T06:30:58;4.87;;;2.02;;
50301;SDS011;36550;50.472;19.744;2022-09-01T06:33:43;3.67;;;1.62;;
50301;SDS011;36550;50.472;19.744;2022-09-01T06:36:28;4.23;;;1.70;;
50301;SDS011;36550;50.472;19.744;2022-09-01T06:39:15;2.98;;;1.60;;
50301;SDS011;36550;50.472;19.744;2022-09-01T06:42:02;5.85;;;1.80;;
50301;SDS011;36550;50.472;19.744;2022-09-01T06:44:46;4.17;;;1.80;;
50301;SDS011;36550;50.472;19.744;2022-09-01T06:47:30;2.47;;;1.62;;
50301;SDS011;36550;50.472;19.744;2022-09-01T06:50:17;3.70;;;1.92;;
50301;SDS011;36550;50.472;19.744;2022-09-01T06:53:04;3.95;;;1.70;;
50301;SDS011;36550;50.472;19.744;2022-09-01T06:55:53;3.62;;;1.70;;
50301;SDS011;36550;50.472;19.744;2022-09-01T06:58:39;4.12;;;1.67;;
50301;SDS011;36550;50.472;19.744;2022-09-01T07:01:27;3.72;;;1.77;;
50301;SDS011;36550;50.472;19.744;2022-09-01T07:04:12;3.10;;;1.70;;
50301;SDS011;36550;50.472;19.744;2022-09-01T07:06:56;2.60;;;1.50;;
50301;SDS011;36550;50.472;19.744;2022-09-01T07:09:41;5.97;;;1.70;;
50301;SDS011;36550;50.472;19.744;2022-09-01T07:12:25;3.12;;;1.75;;
50301;SDS011;36550;50.472;19.744;2022-09-01T07:15:11;3.67;;;1.80;;
50301;SDS011;36550;50.472;19.744;2022-09-01T07:18:00;3.20;;;1.80;;
50301;SDS011;36550;50.472;19.744;2022-09-01T07:20:44;2.83;;;1.50;;
50301;SDS011;36550;50.472;19.744;2022-09-01T07:23:31;5.92;;;1.40;;
50301;SDS011;36550;50.472;19.744;2022-09-01T07:26:16;3.10;;;1.52;;
50301;SDS011;36550;50.472;19.744;2022-09-01T07:29:03;2.92;;;1.50;;
50301;SDS011;36550;50.472;19.744;2022-09-01T07:31:49;3.80;;;1.52;;
50301;SDS011;36550;50.472;19.744;2022-09-01T07:34:35;2.58;;;1.50;;
50301;SDS011;36550;50.472;19.744;2022-09-01T07:37:19;4.67;;;1.17;;
50301;SDS011;36550;50.472;19.744;2022-09-01T07:40:09;4.55;;;1.30;;
50301;SDS011;36550;50.472;19.744;2022-09-01T07:42:57;2.40;;;1.17;;
50301;SDS011;36550;50.472;19.744;2022-09-01T07:45:44;3.00;;;1.17;;
50301;SDS011;36550;50.472;19.744;2022-09-01T07:48:31;3.15;;;1.10;;
50301;SDS011;36550;50.472;19.744;2022-09-01T07:51:15;2.37;;;1.10;;
50301;SDS011;36550;50.472;19.744;2022-09-01T07:54:02;2.37;;;1.00;;
50301;SDS011;36550;50.472;19.744;2022-09-01T07:56:47;1.82;;;1.12;;
50301;SDS011;36550;50.472;19.744;2022-09-01T07:59:32;3.05;;;1.07;;
50301;SDS011;36550;50.472;19.744;2022-09-01T08:02:18;2.33;;;0.60;;
50301;SDS011;36550;50.472;19.744;2022-09-01T08:05:02;1.27;;;0.50;;
50301;SDS011;36550;50.472;19.744;2022-09-01T08:07:50;3.22;;;0.60;;
50301;SDS011;36550;50.472;19.744;2022-09-01T08:10:37;0.98;;;0.60;;
50301;SDS011;36550;50.472;19.744;2022-09-01T08:13:23;1.10;;;0.60;;
50301;SDS011;36550;50.472;19.744;2022-09-01T08:16:08;2.30;;;0.85;;
50301;SDS011;36550;50.472;19.744;2022-09-01T08:18:53;1.32;;;0.57;;
50301;SDS011;36550;50.472;19.744;2022-09-01T08:21:37;1.15;;;0.70;;
50301;SDS011;36550;50.472;19.744;2022-09-01T08:24:23;2.83;;;0.65;;
50301;SDS011;36550;50.472;19.744;2022-09-01T08:27:07;2.47;;;0.70;;
50301;SDS011;36550;50.472;19.744;2022-09-01T08:29:52;2.12;;;0.40;;
50301;SDS011;36550;50.472;19.744;2022-09-01T08:32:36;2.70;;;0.60;;
50301;SDS011;36550;50.472;19.744;2022-09-01T08:35:20;1.10;;;0.40;;
50301;SDS011;36550;50.472;19.744;2022-09-01T08:38:05;2.98;;;0.60;;
50301;SDS011;36550;50.472;19.744;2022-09-01T08:40:50;3.67;;;0.85;;
50301;SDS011;36550;50.472;19.744;2022-09-01T08:46:45;1.87;;;0.90;;
50301;SDS011;36550;50.472;19.744;2022-09-01T08:49:35;3.25;;;0.85;;
50301;SDS011;36550;50.472;19.744;2022-09-01T08:52:30;1.72;;;0.80;;
50301;SDS011;36550;50.472;19.744;2022-09-01T08:58:21;1.90;;;0.98;;
50301;SDS011;36550;50.472;19.744;2022-09-01T09:01:11;1.93;;;0.90;;
50301;SDS011;36550;50.472;19.744;2022-09-01T09:04:20;2.17;;;0.80;;
50301;SDS011;36550;50.472;19.744;2022-09-01T09:07:15;3.25;;;0.50;;
50301;SDS011;36550;50.472;19.744;2022-09-01T09:10:10;2.40;;;0.60;;
50301;SDS011;36550;50.472;19.744;2022-09-01T09:13:06;1.57;;;0.40;;
50301;SDS011;36550;50.472;19.744;2022-09-01T09:16:05;1.52;;;0.40;;
50301;SDS011;36550;50.472;19.744;2022-09-01T09:19:04;0.80;;;0.50;;
50301;SDS011;36550;50.472;19.744;2022-09-01T09:22:13;1.67;;;0.42;;
50301;SDS011;36550;50.472;19.744;2022-09-01T09:27:51;2.90;;;0.40;;
50301;SDS011;36550;50.472;19.744;2022-09-01T09:30:35;1.15;;;0.40;;
50301;SDS011;36550;50.472;19.744;2022-09-01T09:33:33;0.98;;;0.40;;
50301;SDS011;36550;50.472;19.744;2022-09-01T09:36:21;4.28;;;0.40;;
50301;SDS011;36550;50.472;19.744;2022-09-01T09:39:16;2.15;;;0.50;;
50301;SDS011;36550;50.472;19.744;2022-09-01T09:42:03;1.27;;;0.30;;
50301;SDS011;36550;50.472;19.744;2022-09-01T09:44:51;1.52;;;0.37;;
50301;SDS011;36550;50.472;19.744;2022-09-01T09:47:42;0.80;;;0.30;;
50301;SDS011;36550;50.472;19.744;2022-09-01T09:50:27;1.45;;;0.37;;
50301;SDS011;36550;50.472;19.744;2022-09-01T09:53:27;0.45;;;0.20;;
50301;SDS011;36550;50.472;19.744;2022-09-01T09:56:19;2.22;;;0.40;;
50301;SDS011;36550;50.472;19.744;2022-09-01T09:59:13;2.72;;;0.78;;
50301;SDS011;36550;50.472;19.744;2022-09-01T10:05:33;3.22;;;0.50;;
50301;SDS011;36550;50.472;19.744;2022-09-01T10:08:38;2.47;;;0.40;;
50301;SDS011;36550;50.472;19.744;2022-09-01T10:14:24;2.03;;;0.30;;
50301;SDS011;36550;50.472;19.744;2022-09-01T10:17:29;0.78;;;0.30;;
50301;SDS011;36550;50.472;19.744;2022-09-01T10:20:25;1.10;;;0.30;;
50301;SDS011;36550;50.472;19.744;2022-09-01T10:23:10;0.93;;;0.30;;
50301;SDS011;36550;50.472;19.744;2022-09-01T10:25:56;0.82;;;0.30;;
50301;SDS011;36550;50.472;19.744;2022-09-01T10:31:49;1.45;;;0.40;;
50301;SDS011;36550;50.472;19.744;2022-09-01T10:34:36;0.60;;;0.30;;
50301;SDS011;36550;50.472;19.744;2022-09-01T10:43:27;0.80;;;0.30;;
50301;SDS011;36550;50.472;19.744;2022-09-01T10:55:34;1.10;;;0.13;;
50301;SDS011;36550;50.472;19.744;2022-09-01T11:07:32;0.40;;;0.20;;
50301;SDS011;36550;50.472;19.744;2022-09-01T11:14:08;0.78;;;0.20;;
50301;SDS011;36550;50.472;19.744;2022-09-01T11:19:31;1.45;;;0.20;;
50301;SDS011;36550;50.472;19.744;2022-09-01T11:22:26;1.00;;;0.20;;
50301;SDS011;36550;50.472;19.744;2022-09-01T11:28:38;0.93;;;0.20;;
50301;SDS011;36550;50.472;19.744;2022-09-01T11:31:25;0.42;;;0.20;;
50301;SDS011;36550;50.472;19.744;2022-09-01T11:37:02;0.53;;;0.30;;
50301;SDS011;36550;50.472;19.744;2022-09-01T11:40:00;0.47;;;0.23;;
50301;SDS011;36550;50.472;19.744;2022-09-01T11:42:44;5.30;;;0.30;;
50301;SDS011;36550;50.472;19.744;2022-09-01T11:45:30;2.08;;;0.40;;
50301;SDS011;36550;50.472;19.744;2022-09-01T11:48:19;0.80;;;0.33;;
50301;SDS011;36550;50.472;19.744;2022-09-01T11:51:03;0.60;;;0.20;;
50301;SDS011;36550;50.472;19.744;2022-09-01T11:53:48;1.70;;;0.30;;
50301;SDS011;36550;50.472;19.744;2022-09-01T11:56:34;1.77;;;0.20;;
50301;SDS011;36550;50.472;19.744;2022-09-01T11:59:35;1.22;;;0.20;;
50301;SDS011;36550;50.472;19.744;2022-09-01T12:02:20;1.15;;;0.30;;
50301;SDS011;36550;50.472;19.744;2022-09-01T12:05:24;0.85;;;0.20;;
50301;SDS011;36550;50.472;19.744;2022-09-01T12:08:17;3.95;;;0.20;;
50301;SDS011;36550;50.472;19.744;2022-09-01T12:11:09;1.77;;;0.30;;
50301;SDS011;36550;50.472;19.744;2022-09-01T12:14:02;2.67;;;0.20;;
50301;SDS011;36550;50.472;19.744;2022-09-01T12:16:57;2.17;;;0.25;;
50301;SDS011;36550;50.472;19.744;2022-09-01T12:19:49;0.93;;;0.20;;
50301;SDS011;36550;50.472;19.744;2022-09-01T12:22:32;0.40;;;0.20;;
50301;SDS011;36550;50.472;19.744;2022-09-01T12:25:22;0.47;;;0.20;;
50301;SDS011;36550;50.472;19.744;2022-09-01T12:30:59;4.10;;;1.47;;
50301;SDS011;36550;50.472;19.744;2022-09-01T12:33:46;1.22;;;0.20;;
50301;SDS011;36550;50.472;19.744;2022-09-01T12:36:35;0.30;;;0.17;;
50301;SDS011;36550;50.472;19.744;2022-09-01T12:39:20;0.15;;;0.10;;
50301;SDS011;36550;50.472;19.744;2022-09-01T12:42:20;0.50;;;0.20;;
50301;SDS011;36550;50.472;19.744;2022-09-01T12:45:07;2.15;;;0.20;;
50301;SDS011;36550;50.472;19.744;2022-09-01T12:47:53;0.30;;;0.10;;
50301;SDS011;36550;50.472;19.744;2022-09-01T12:50:40;0.40;;;0.20;;
50301;SDS011;36550;50.472;19.744;2022-09-01T12:53:28;1.17;;;0.20;;
50301;SDS011;36550;50.472;19.744;2022-09-01T12:56:20;1.17;;;0.30;;
50301;SDS011;36550;50.472;19.744;2022-09-01T12:59:22;0.50;;;0.28;;
50301;SDS011;36550;50.472;19.744;2022-09-01T13:11:15;1.35;;;0.30;;
50301;SDS011;36550;50.472;19.744;2022-09-01T13:14:01;0.45;;;0.15;;
50301;SDS011;36550;50.472;19.744;2022-09-01T13:16:46;0.33;;;0.20;;
50301;SDS011;36550;50.472;19.744;2022-09-01T13:19:30;4.60;;;0.37;;
50301;SDS011;36550;50.472;19.744;2022-09-01T13:22:14;0.57;;;0.25;;
50301;SDS011;36550;50.472;19.744;2022-09-01T13:24:59;0.57;;;0.17;;
50301;SDS011;36550;50.472;19.744;2022-09-01T13:30:29;0.20;;;0.10;;
50301;SDS011;36550;50.472;19.744;2022-09-01T13:33:14;0.60;;;0.20;;
50301;SDS011;36550;50.472;19.744;2022-09-01T13:35:59;0.98;;;0.30;;
50301;SDS011;36550;50.472;19.744;2022-09-01T13:38:45;1.50;;;0.20;;
50301;SDS011;36550;50.472;19.744;2022-09-01T13:41:29;0.53;;;0.20;;
50301;SDS011;36550;50.472;19.744;2022-09-01T13:44:14;2.07;;;0.20;;
50301;SDS011;36550;50.472;19.744;2022-09-01T13:47:00;0.40;;;0.20;;
50301;SDS011;36550;50.472;19.744;2022-09-01T13:49:46;0.98;;;0.30;;
50301;SDS011;36550;50.472;19.744;2022-09-01T13:52:30;1.17;;;0.28;;
50301;SDS011;36550;50.472;19.744;2022-09-01T13:55:17;1.15;;;0.20;;
50301;SDS011;36550;50.472;19.744;2022-09-01T13:58:04;0.37;;;0.10;;
50301;SDS011;36550;50.472;19.744;2022-09-01T14:00:48;1.55;;;0.42;;
50301;SDS011;36550;50.472;19.744;2022-09-01T14:03:33;1.15;;;0.20;;
50301;SDS011;36550;50.472;19.744;2022-09-01T14:06:17;0.42;;;0.10;;
50301;SDS011;36550;50.472;19.744;2022-09-01T14:09:01;1.47;;;0.10;;
50301;SDS011;36550;50.472;19.744;2022-09-01T14:11:46;2.30;;;0.20;;
50301;SDS011;36550;50.472;19.744;2022-09-01T14:14:31;0.37;;;0.20;;
50301;SDS011;36550;50.472;19.744;2022-09-01T14:17:16;0.20;;;0.20;;
50301;SDS011;36550;50.472;19.744;2022-09-01T14:20:01;0.95;;;0.23;;
50301;SDS011;36550;50.472;19.744;2022-09-01T14:22:49;0.55;;;0.20;;
50301;SDS011;36550;50.472;19.744;2022-09-01T14:25:34;0.13;;;0.10;;
50301;SDS011;36550;50.472;19.744;2022-09-01T14:31:08;0.90;;;0.25;;
50301;SDS011;36550;50.472;19.744;2022-09-01T14:33:53;1.20;;;0.20;;
50301;SDS011;36550;50.472;19.744;2022-09-01T14:36:39;0.45;;;0.20;;
50301;SDS011;36550;50.472;19.744;2022-09-01T14:39:24;0.55;;;0.20;;
50301;SDS011;36550;50.472;19.744;2022-09-01T14:42:08;0.83;;;0.23;;
50301;SDS011;36550;50.472;19.744;2022-09-01T14:44:54;0.50;;;0.20;;
50301;SDS011;36550;50.472;19.744;2022-09-01T14:47:39;0.55;;;0.20;;
50301;SDS011;36550;50.472;19.744;2022-09-01T14:50:23;0.45;;;0.20;;
50301;SDS011;36550;50.472;19.744;2022-09-01T14:53:09;0.50;;;0.25;;
50301;SDS011;36550;50.472;19.744;2022-09-01T14:55:57;0.47;;;0.28;;
50301;SDS011;36550;50.472;19.744;2022-09-01T14:58:43;2.15;;;0.20;;
50301;SDS011;36550;50.472;19.744;2022-09-01T15:01:29;0.75;;;0.30;;
50301;SDS011;36550;50.472;19.744;2022-09-01T15:04:13;0.60;;;0.30;;
50301;SDS011;36550;50.472;19.744;2022-09-01T15:06:58;1.07;;;0.20;;
50301;SDS011;36550;50.472;19.744;2022-09-01T15:09:42;0.13;;;0.10;;
50301;SDS011;36550;50.472;19.744;2022-09-01T15:12:26;0.80;;;0.20;;
50301;SDS011;36550;50.472;19.744;2022-09-01T15:15:12;0.20;;;0.10;;
50301;SDS011;36550;50.472;19.744;2022-09-01T15:17:57;3.12;;;0.20;;
50301;SDS011;36550;50.472;19.744;2022-09-01T15:20:43;2.02;;;0.10;;
50301;SDS011;36550;50.472;19.744;2022-09-01T15:23:28;1.47;;;0.20;;
50301;SDS011;36550;50.472;19.744;2022-09-01T15:26:12;0.30;;;0.10;;
50301;SDS011;36550;50.472;19.744;2022-09-01T15:28:58;1.25;;;0.30;;
50301;SDS011;36550;50.472;19.744;2022-09-01T15:31:44;0.40;;;0.20;;
50301;SDS011;36550;50.472;19.744;2022-09-01T15:34:29;0.40;;;0.20;;
50301;SDS011;36550;50.472;19.744;2022-09-01T15:37:13;0.23;;;0.20;;
50301;SDS011;36550;50.472;19.744;2022-09-01T15:39:58;0.70;;;0.10;;
50301;SDS011;36550;50.472;19.744;2022-09-01T15:42:42;0.20;;;0.10;;
50301;SDS011;36550;50.472;19.744;2022-09-01T15:45:27;0.78;;;0.20;;
50301;SDS011;36550;50.472;19.744;2022-09-01T15:48:11;1.12;;;0.30;;
50301;SDS011;36550;50.472;19.744;2022-09-01T15:51:30;1.15;;;0.25;;
50301;SDS011;36550;50.472;19.744;2022-09-01T15:54:15;1.35;;;0.40;;
50301;SDS011;36550;50.472;19.744;2022-09-01T15:57:02;1.32;;;0.30;;
50301;SDS011;36550;50.472;19.744;2022-09-01T15:59:47;1.35;;;0.40;;
50301;SDS011;36550;50.472;19.744;2022-09-01T16:02:31;2.27;;;0.30;;
50301;SDS011;36550;50.472;19.744;2022-09-01T16:05:15;0.45;;;0.30;;
50301;SDS011;36550;50.472;19.744;2022-09-01T16:08:00;4.63;;;0.40;;
50301;SDS011;36550;50.472;19.744;2022-09-01T16:10:47;0.80;;;0.50;;
50301;SDS011;36550;50.472;19.744;2022-09-01T16:13:31;0.33;;;0.30;;
50301;SDS011;36550;50.472;19.744;2022-09-01T16:22:55;1.05;;;0.55;;
50301;SDS011;36550;50.472;19.744;2022-09-01T16:25:58;1.87;;;0.40;;
50301;SDS011;36550;50.472;19.744;2022-09-01T16:28:47;0.88;;;0.60;;
50301;SDS011;36550;50.472;19.744;2022-09-01T16:31:37;1.17;;;0.60;;
50301;SDS011;36550;50.472;19.744;2022-09-01T16:34:23;2.22;;;0.70;;
50301;SDS011;36550;50.472;19.744;2022-09-01T16:46:37;2.15;;;0.82;;
50301;SDS011;36550;50.472;19.744;2022-09-01T16:52:52;2.90;;;0.70;;
50301;SDS011;36550;50.472;19.744;2022-09-01T16:56:06;2.17;;;0.80;;
50301;SDS011;36550;50.472;19.744;2022-09-01T17:02:03;2.12;;;0.75;;
50301;SDS011;36550;50.472;19.744;2022-09-01T17:05:08;2.98;;;0.62;;
50301;SDS011;36550;50.472;19.744;2022-09-01T17:08:15;1.62;;;0.60;;
50301;SDS011;36550;50.472;19.744;2022-09-01T17:11:19;1.35;;;0.70;;
50301;SDS011;36550;50.472;19.744;2022-09-01T17:14:06;1.20;;;0.70;;
50301;SDS011;36550;50.472;19.744;2022-09-01T17:17:01;3.72;;;0.57;;
50301;SDS011;36550;50.472;19.744;2022-09-01T17:19:50;1.05;;;0.47;;
50301;SDS011;36550;50.472;19.744;2022-09-01T17:22:37;0.98;;;0.50;;
50301;SDS011;36550;50.472;19.744;2022-09-01T17:25:32;0.90;;;0.40;;
50301;SDS011;36550;50.472;19.744;2022-09-01T17:28:24;0.80;;;0.40;;
50301;SDS011;36550;50.472;19.744;2022-09-01T17:31:10;1.27;;;0.50;;
50301;SDS011;36550;50.472;19.744;2022-09-01T17:34:08;1.50;;;0.47;;
50301;SDS011;36550;50.472;19.744;2022-09-01T17:37:05;0.55;;;0.50;;
50301;SDS011;36550;50.472;19.744;2022-09-01T17:40:26;1.95;;;0.47;;
50301;SDS011;36550;50.472;19.744;2022-09-01T17:43:18;4.12;;;0.50;;
50301;SDS011;36550;50.472;19.744;2022-09-01T17:46:31;2.37;;;0.40;;
50301;SDS011;36550;50.472;19.744;2022-09-01T17:52:47;1.07;;;0.53;;
50301;SDS011;36550;50.472;19.744;2022-09-01T17:55:51;0.98;;;0.40;;
50301;SDS011;36550;50.472;19.744;2022-09-01T17:59:02;5.05;;;0.85;;
50301;SDS011;36550;50.472;19.744;2022-09-01T18:05:10;0.85;;;0.60;;
50301;SDS011;36550;50.472;19.744;2022-09-01T18:08:19;3.65;;;0.60;;
50301;SDS011;36550;50.472;19.744;2022-09-01T18:14:13;3.25;;;0.60;;
50301;SDS011;36550;50.472;19.744;2022-09-01T18:17:20;0.68;;;0.45;;
50301;SDS011;36550;50.472;19.744;2022-09-01T18:20:28;2.02;;;0.50;;
50301;SDS011;36550;50.472;19.744;2022-09-01T18:23:26;1.70;;;0.55;;
50301;SDS011;36550;50.472;19.744;2022-09-01T18:26:19;1.65;;;0.57;;
50301;SDS011;36550;50.472;19.744;2022-09-01T18:29:04;1.45;;;0.50;;
50301;SDS011;36550;50.472;19.744;2022-09-01T18:32:00;0.90;;;0.50;;
50301;SDS011;36550;50.472;19.744;2022-09-01T18:34:59;2.45;;;0.40;;
50301;SDS011;36550;50.472;19.744;2022-09-01T18:38:01;2.58;;;0.60;;
50301;SDS011;36550;50.472;19.744;2022-09-01T18:53:49;3.45;;;1.32;;